Summitville, Indiana
Current Conditions -  °F | °C
As of 11:35 AM on Wednesday 22 Oct 2014 (Local Time) from KMZZ Reporting Station
Scattered Clouds Scattered Clouds  
Wind Chill: 45°   Ceiling: Unl
Heat Index: 47°   Visibility: 10mi
Dew Point: 38°   Wind: 5mph
Humidity: 71%   Direction: 70°ENE
Pressure: 30.35"   Gusts: NA
Location:  40.34°N, 85.64°W
Report Text: KMZZ 221535Z AUTO 07004KT 10SM SCT015 08/03 A3035 RMK AO2 T00830034
Loading
Personal Weather Stations






























Interactive Weather Map
Tropical Storm Tracking
New forecast layout! Learn more

10-Day Weather Forecast

Advertisements
Track Severe Weather on mobile